sensor_id;sensor_type;location;lat;lon;timestamp;temperature;humidity
28654;DHT22;24320;56.980;24.336;2024-03-23T00:54:31;6.00;99.90
28654;DHT22;24320;56.980;24.336;2024-03-23T00:56:56;6.00;99.90
28654;DHT22;24320;56.980;24.336;2024-03-23T00:59:22;5.90;99.90
28654;DHT22;24320;56.980;24.336;2024-03-23T01:01:52;5.90;99.90
28654;DHT22;24320;56.980;24.336;2024-03-23T01:04:18;5.80;99.90
28654;DHT22;24320;56.980;24.336;2024-03-23T01:06:44;5.80;99.90
28654;DHT22;24320;56.980;24.336;2024-03-23T01:09:10;5.70;99.90
28654;DHT22;24320;56.980;24.336;2024-03-23T01:11:36;5.70;99.90
28654;DHT22;24320;56.980;24.336;2024-03-23T01:14:02;5.70;99.90
28654;DHT22;24320;56.980;24.336;2024-03-23T01:16:28;5.70;99.90
28654;DHT22;24320;56.980;24.336;2024-03-23T01:18:54;5.80;99.90
28654;DHT22;24320;56.980;24.336;2024-03-23T01:21:20;5.80;99.90
28654;DHT22;24320;56.980;24.336;2024-03-23T01:23:46;5.90;99.90
28654;DHT22;24320;56.980;24.336;2024-03-23T01:26:13;5.90;99.90
28654;DHT22;24320;56.980;24.336;2024-03-23T01:28:40;6.00;99.90
28654;DHT22;24320;56.980;24.336;2024-03-23T01:31:06;6.00;99.90
28654;DHT22;24320;56.980;24.336;2024-03-23T01:33:32;6.10;99.90
28654;DHT22;24320;56.980;24.336;2024-03-23T01:35:57;6.10;99.90
28654;DHT22;24320;56.980;24.336;2024-03-23T01:38:23;6.10;99.90
28654;DHT22;24320;56.980;24.336;2024-03-23T01:40:49;6.20;99.90
28654;DHT22;24320;56.980;24.336;2024-03-23T01:43:15;6.10;99.90
28654;DHT22;24320;56.980;24.336;2024-03-23T01:45:41;6.10;99.90
28654;DHT22;24320;56.980;24.336;2024-03-23T01:48:07;6.10;99.90
28654;DHT22;24320;56.980;24.336;2024-03-23T01:50:32;6.10;99.90
28654;DHT22;24320;56.980;24.336;2024-03-23T01:53:00;6.10;99.90
28654;DHT22;24320;56.980;24.336;2024-03-23T01:55:27;6.20;99.90
28654;DHT22;24320;56.980;24.336;2024-03-23T01:57:53;6.20;99.90
28654;DHT22;24320;56.980;24.336;2024-03-23T02:00:19;6.30;99.90
28654;DHT22;24320;56.980;24.336;2024-03-23T02:02:45;6.30;99.90
28654;DHT22;24320;56.980;24.336;2024-03-23T02:05:11;6.30;99.90
28654;DHT22;24320;56.980;24.336;2024-03-23T02:07:38;6.20;99.90
28654;DHT22;24320;56.980;24.336;2024-03-23T02:10:03;6.20;99.90
28654;DHT22;24320;56.980;24.336;2024-03-23T02:12:29;6.30;99.90
28654;DHT22;24320;56.980;24.336;2024-03-23T02:14:55;6.20;99.90
28654;DHT22;24320;56.980;24.336;2024-03-23T02:17:21;6.30;99.90
28654;DHT22;24320;56.980;24.336;2024-03-23T02:19:47;6.20;99.90
28654;DHT22;24320;56.980;24.336;2024-03-23T02:22:13;6.20;99.90
28654;DHT22;24320;56.980;24.336;2024-03-23T02:24:38;6.20;99.90
28654;DHT22;24320;56.980;24.336;2024-03-23T02:27:04;6.20;99.90
28654;DHT22;24320;56.980;24.336;2024-03-23T02:29:30;6.20;99.90
28654;DHT22;24320;56.980;24.336;2024-03-23T02:31:56;6.20;99.90
28654;DHT22;24320;56.980;24.336;2024-03-23T02:34:21;6.10;99.90
28654;DHT22;24320;56.980;24.336;2024-03-23T02:36:47;6.10;99.90
28654;DHT22;24320;56.980;24.336;2024-03-23T02:39:13;6.10;99.90
28654;DHT22;24320;56.980;24.336;2024-03-23T02:41:39;6.10;99.90
28654;DHT22;24320;56.980;24.336;2024-03-23T02:44:05;6.00;99.90
28654;DHT22;24320;56.980;24.336;2024-03-23T02:46:30;6.00;99.90
28654;DHT22;24320;56.980;24.336;2024-03-23T02:48:56;6.00;99.90
28654;DHT22;24320;56.980;24.336;2024-03-23T02:51:22;6.00;99.90
28654;DHT22;24320;56.980;24.336;2024-03-23T02:53:48;6.00;99.90
28654;DHT22;24320;56.980;24.336;2024-03-23T02:56:14;6.00;99.90
28654;DHT22;24320;56.980;24.336;2024-03-23T02:58:45;6.00;99.90
28654;DHT22;24320;56.980;24.336;2024-03-23T03:01:10;5.90;99.90
28654;DHT22;24320;56.980;24.336;2024-03-23T03:03:36;5.90;99.90
28654;DHT22;24320;56.980;24.336;2024-03-23T03:06:02;5.90;99.90
28654;DHT22;24320;56.980;24.336;2024-03-23T03:08:28;6.00;99.90
28654;DHT22;24320;56.980;24.336;2024-03-23T03:10:54;6.00;99.90
28654;DHT22;24320;56.980;24.336;2024-03-23T03:13:19;6.00;99.90
28654;DHT22;24320;56.980;24.336;2024-03-23T03:15:45;6.00;99.90
28654;DHT22;24320;56.980;24.336;2024-03-23T03:18:11;5.90;99.90
28654;DHT22;24320;56.980;24.336;2024-03-23T03:20:38;6.00;99.90
28654;DHT22;24320;56.980;24.336;2024-03-23T03:23:05;6.00;99.90
28654;DHT22;24320;56.980;24.336;2024-03-23T03:25:30;5.90;99.90
28654;DHT22;24320;56.980;24.336;2024-03-23T03:27:56;5.90;99.90
28654;DHT22;24320;56.980;24.336;2024-03-23T03:30:22;5.80;99.90
28654;DHT22;24320;56.980;24.336;2024-03-23T03:32:49;5.70;99.90
28654;DHT22;24320;56.980;24.336;2024-03-23T03:35:14;5.70;99.90
28654;DHT22;24320;56.980;24.336;2024-03-23T03:37:40;5.60;99.90
28654;DHT22;24320;56.980;24.336;2024-03-23T03:40:06;5.50;99.90
28654;DHT22;24320;56.980;24.336;2024-03-23T03:42:34;5.50;99.90
28654;DHT22;24320;56.980;24.336;2024-03-23T03:45:00;5.40;99.90
28654;DHT22;24320;56.980;24.336;2024-03-23T03:47:26;5.40;99.90
28654;DHT22;24320;56.980;24.336;2024-03-23T03:49:52;5.40;99.90
28654;DHT22;24320;56.980;24.336;2024-03-23T03:52:18;5.40;99.90
28654;DHT22;24320;56.980;24.336;2024-03-23T03:54:43;5.40;99.90
28654;DHT22;24320;56.980;24.336;2024-03-23T03:57:09;5.40;99.90
28654;DHT22;24320;56.980;24.336;2024-03-23T03:59:35;5.40;99.90
28654;DHT22;24320;56.980;24.336;2024-03-23T04:02:01;5.40;99.90
28654;DHT22;24320;56.980;24.336;2024-03-23T04:04:27;5.40;99.90
28654;DHT22;24320;56.980;24.336;2024-03-23T04:07:02;5.40;99.90
28654;DHT22;24320;56.980;24.336;2024-03-23T04:09:28;5.40;99.90
28654;DHT22;24320;56.980;24.336;2024-03-23T04:11:54;5.40;99.90
28654;DHT22;24320;56.980;24.336;2024-03-23T04:14:19;5.40;99.90
28654;DHT22;24320;56.980;24.336;2024-03-23T04:16:45;5.30;99.90
28654;DHT22;24320;56.980;24.336;2024-03-23T04:19:11;5.30;99.90
28654;DHT22;24320;56.980;24.336;2024-03-23T04:21:37;5.30;99.90
28654;DHT22;24320;56.980;24.336;2024-03-23T04:24:03;5.20;99.90
28654;DHT22;24320;56.980;24.336;2024-03-23T04:26:29;5.10;99.90
28654;DHT22;24320;56.980;24.336;2024-03-23T04:28:56;5.00;99.90
28654;DHT22;24320;56.980;24.336;2024-03-23T04:31:23;4.90;99.90
28654;DHT22;24320;56.980;24.336;2024-03-23T04:33:49;4.80;99.90
28654;DHT22;24320;56.980;24.336;2024-03-23T04:36:15;4.80;99.90
28654;DHT22;24320;56.980;24.336;2024-03-23T04:38:41;4.70;99.90
28654;DHT22;24320;56.980;24.336;2024-03-23T04:41:07;4.70;99.90
28654;DHT22;24320;56.980;24.336;2024-03-23T04:43:32;4.70;99.90
28654;DHT22;24320;56.980;24.336;2024-03-23T04:45:58;4.70;99.90
28654;DHT22;24320;56.980;24.336;2024-03-23T04:48:24;4.70;99.90
28654;DHT22;24320;56.980;24.336;2024-03-23T04:50:54;4.80;99.90
28654;DHT22;24320;56.980;24.336;2024-03-23T04:53:20;4.80;99.90
28654;DHT22;24320;56.980;24.336;2024-03-23T04:55:46;4.80;99.90
28654;DHT22;24320;56.980;24.336;2024-03-23T04:58:11;4.90;99.90
28654;DHT22;24320;56.980;24.336;2024-03-23T05:00:37;4.90;99.90
28654;DHT22;24320;56.980;24.336;2024-03-23T05:03:03;5.00;99.90
28654;DHT22;24320;56.980;24.336;2024-03-23T05:05:31;5.00;99.90
28654;DHT22;24320;56.980;24.336;2024-03-23T05:07:57;5.10;99.90
28654;DHT22;24320;56.980;24.336;2024-03-23T05:10:22;5.10;99.90
28654;DHT22;24320;56.980;24.336;2024-03-23T05:12:48;5.10;99.90
28654;DHT22;24320;56.980;24.336;2024-03-23T05:15:14;5.10;99.90
28654;DHT22;24320;56.980;24.336;2024-03-23T05:17:40;5.20;99.90
28654;DHT22;24320;56.980;24.336;2024-03-23T05:20:06;5.20;99.90
28654;DHT22;24320;56.980;24.336;2024-03-23T05:22:35;5.20;99.90
28654;DHT22;24320;56.980;24.336;2024-03-23T05:25:02;5.20;99.90
28654;DHT22;24320;56.980;24.336;2024-03-23T05:27:31;5.20;99.90
28654;DHT22;24320;56.980;24.336;2024-03-23T05:29:57;5.20;99.90
28654;DHT22;24320;56.980;24.336;2024-03-23T05:32:23;5.20;99.90
28654;DHT22;24320;56.980;24.336;2024-03-23T05:34:49;5.20;99.90
28654;DHT22;24320;56.980;24.336;2024-03-23T05:37:21;5.20;99.90
28654;DHT22;24320;56.980;24.336;2024-03-23T05:39:47;5.20;99.90
28654;DHT22;24320;56.980;24.336;2024-03-23T05:42:18;5.10;99.90
28654;DHT22;24320;56.980;24.336;2024-03-23T05:44:44;5.20;99.90
28654;DHT22;24320;56.980;24.336;2024-03-23T05:47:10;5.30;99.90
28654;DHT22;24320;56.980;24.336;2024-03-23T05:49:38;5.20;99.90
28654;DHT22;24320;56.980;24.336;2024-03-23T05:52:04;5.20;99.90
28654;DHT22;24320;56.980;24.336;2024-03-23T05:54:30;5.30;99.90
28654;DHT22;24320;56.980;24.336;2024-03-23T05:56:56;5.30;99.90
28654;DHT22;24320;56.980;24.336;2024-03-23T05:59:21;5.30;99.90
28654;DHT22;24320;56.980;24.336;2024-03-23T06:01:47;5.40;99.90
28654;DHT22;24320;56.980;24.336;2024-03-23T06:04:13;5.50;99.90
28654;DHT22;24320;56.980;24.336;2024-03-23T06:06:39;5.50;99.90
28654;DHT22;24320;56.980;24.336;2024-03-23T06:09:05;5.40;99.90
28654;DHT22;24320;56.980;24.336;2024-03-23T06:11:31;5.40;99.90
28654;DHT22;24320;56.980;24.336;2024-03-23T06:13:56;5.50;99.90
28654;DHT22;24320;56.980;24.336;2024-03-23T06:16:22;5.50;99.90
28654;DHT22;24320;56.980;24.336;2024-03-23T06:18:52;5.70;99.90
28654;DHT22;24320;56.980;24.336;2024-03-23T06:21:18;5.80;99.90
28654;DHT22;24320;56.980;24.336;2024-03-23T06:23:44;5.90;99.90
28654;DHT22;24320;56.980;24.336;2024-03-23T06:26:17;6.10;99.90
28654;DHT22;24320;56.980;24.336;2024-03-23T06:28:43;6.10;99.90
28654;DHT22;24320;56.980;24.336;2024-03-23T06:31:09;6.10;99.90
28654;DHT22;24320;56.980;24.336;2024-03-23T06:33:35;6.10;99.90
28654;DHT22;24320;56.980;24.336;2024-03-23T06:36:01;6.10;99.90
28654;DHT22;24320;56.980;24.336;2024-03-23T06:38:29;6.20;99.90
28654;DHT22;24320;56.980;24.336;2024-03-23T06:40:55;6.20;99.90
28654;DHT22;24320;56.980;24.336;2024-03-23T06:43:22;6.30;99.90
28654;DHT22;24320;56.980;24.336;2024-03-23T06:45:54;6.50;99.90
28654;DHT22;24320;56.980;24.336;2024-03-23T06:48:20;6.60;99.90
28654;DHT22;24320;56.980;24.336;2024-03-23T06:50:46;7.00;99.90
28654;DHT22;24320;56.980;24.336;2024-03-23T06:53:12;7.40;99.90
28654;DHT22;24320;56.980;24.336;2024-03-23T06:55:38;7.50;99.90
28654;DHT22;24320;56.980;24.336;2024-03-23T06:58:04;7.60;99.90
28654;DHT22;24320;56.980;24.336;2024-03-23T07:00:30;7.50;99.90
28654;DHT22;24320;56.980;24.336;2024-03-23T07:02:56;7.40;99.90
28654;DHT22;24320;56.980;24.336;2024-03-23T07:05:21;7.40;99.90
28654;DHT22;24320;56.980;24.336;2024-03-23T07:07:47;7.30;99.90
28654;DHT22;24320;56.980;24.336;2024-03-23T07:10:13;7.30;99.90
28654;DHT22;24320;56.980;24.336;2024-03-23T07:12:39;7.20;99.90
28654;DHT22;24320;56.980;24.336;2024-03-23T07:15:05;7.20;99.90
28654;DHT22;24320;56.980;24.336;2024-03-23T07:17:31;7.30;99.90
28654;DHT22;24320;56.980;24.336;2024-03-23T07:19:58;7.40;99.90
28654;DHT22;24320;56.980;24.336;2024-03-23T07:22:24;7.60;99.90
28654;DHT22;24320;56.980;24.336;2024-03-23T07:24:49;7.50;99.90
28654;DHT22;24320;56.980;24.336;2024-03-23T07:27:15;7.40;99.90
28654;DHT22;24320;56.980;24.336;2024-03-23T07:29:41;7.30;99.90
28654;DHT22;24320;56.980;24.336;2024-03-23T07:32:07;7.40;99.90
28654;DHT22;24320;56.980;24.336;2024-03-23T07:34:32;7.90;99.90
28654;DHT22;24320;56.980;24.336;2024-03-23T07:36:58;8.70;99.90
28654;DHT22;24320;56.980;24.336;2024-03-23T07:39:24;9.40;99.90
28654;DHT22;24320;56.980;24.336;2024-03-23T07:41:50;10.20;99.90
28654;DHT22;24320;56.980;24.336;2024-03-23T07:44:16;10.80;99.90
28654;DHT22;24320;56.980;24.336;2024-03-23T07:46:42;10.80;99.90
28654;DHT22;24320;56.980;24.336;2024-03-23T07:49:07;10.50;99.90
28654;DHT22;24320;56.980;24.336;2024-03-23T07:51:33;10.20;99.90
28654;DHT22;24320;56.980;24.336;2024-03-23T07:54:00;9.60;99.90
28654;DHT22;24320;56.980;24.336;2024-03-23T07:56:26;9.00;99.90
28654;DHT22;24320;56.980;24.336;2024-03-23T07:58:52;8.50;99.90
28654;DHT22;24320;56.980;24.336;2024-03-23T08:01:17;8.20;99.90
28654;DHT22;24320;56.980;24.336;2024-03-23T08:03:44;8.00;99.90
28654;DHT22;24320;56.980;24.336;2024-03-23T08:06:13;8.00;99.90
28654;DHT22;24320;56.980;24.336;2024-03-23T08:08:40;8.20;99.90
28654;DHT22;24320;56.980;24.336;2024-03-23T08:11:06;8.40;99.90
28654;DHT22;24320;56.980;24.336;2024-03-23T08:13:32;8.40;99.90
28654;DHT22;24320;56.980;24.336;2024-03-23T08:15:58;8.20;99.90
28654;DHT22;24320;56.980;24.336;2024-03-23T08:18:24;8.10;99.90
28654;DHT22;24320;56.980;24.336;2024-03-23T08:20:57;8.20;99.90
28654;DHT22;24320;56.980;24.336;2024-03-23T08:23:26;8.30;99.90
28654;DHT22;24320;56.980;24.336;2024-03-23T08:25:57;8.40;99.90
28654;DHT22;24320;56.980;24.336;2024-03-23T08:28:22;8.50;99.90
28654;DHT22;24320;56.980;24.336;2024-03-23T08:30:48;8.50;99.90
28654;DHT22;24320;56.980;24.336;2024-03-23T08:33:15;8.70;99.90
28654;DHT22;24320;56.980;24.336;2024-03-23T08:35:41;9.00;99.90
28654;DHT22;24320;56.980;24.336;2024-03-23T08:38:07;9.20;99.90
28654;DHT22;24320;56.980;24.336;2024-03-23T08:40:32;9.10;99.90
28654;DHT22;24320;56.980;24.336;2024-03-23T08:42:58;9.00;99.90
28654;DHT22;24320;56.980;24.336;2024-03-23T08:45:24;9.00;99.90
28654;DHT22;24320;56.980;24.336;2024-03-23T08:47:51;9.00;99.90
28654;DHT22;24320;56.980;24.336;2024-03-23T08:50:17;9.00;99.90
28654;DHT22;24320;56.980;24.336;2024-03-23T08:52:42;9.10;99.90
28654;DHT22;24320;56.980;24.336;2024-03-23T08:55:08;8.90;99.90
28654;DHT22;24320;56.980;24.336;2024-03-23T08:57:35;8.90;99.90
28654;DHT22;24320;56.980;24.336;2024-03-23T09:00:02;9.10;99.90
28654;DHT22;24320;56.980;24.336;2024-03-23T09:02:28;9.30;99.90
28654;DHT22;24320;56.980;24.336;2024-03-23T09:04:54;9.60;99.90
28654;DHT22;24320;56.980;24.336;2024-03-23T09:07:20;9.70;99.90
28654;DHT22;24320;56.980;24.336;2024-03-23T09:09:47;9.50;99.90
28654;DHT22;24320;56.980;24.336;2024-03-23T09:12:13;9.30;99.90
28654;DHT22;24320;56.980;24.336;2024-03-23T09:14:38;9.40;99.90
28654;DHT22;24320;56.980;24.336;2024-03-23T09:17:04;9.50;99.90
28654;DHT22;24320;56.980;24.336;2024-03-23T09:19:30;9.50;99.90
28654;DHT22;24320;56.980;24.336;2024-03-23T09:21:56;9.60;99.90
28654;DHT22;24320;56.980;24.336;2024-03-23T09:24:22;9.50;99.90
28654;DHT22;24320;56.980;24.336;2024-03-23T09:26:48;9.40;99.90
28654;DHT22;24320;56.980;24.336;2024-03-23T09:29:14;9.20;99.90
28654;DHT22;24320;56.980;24.336;2024-03-23T09:31:39;9.10;99.90
28654;DHT22;24320;56.980;24.336;2024-03-23T09:34:06;9.10;99.90
28654;DHT22;24320;56.980;24.336;2024-03-23T09:36:32;9.00;99.90
28654;DHT22;24320;56.980;24.336;2024-03-23T09:38:58;8.90;99.90
28654;DHT22;24320;56.980;24.336;2024-03-23T09:41:23;8.90;99.90
28654;DHT22;24320;56.980;24.336;2024-03-23T09:43:52;8.90;99.90
28654;DHT22;24320;56.980;24.336;2024-03-23T09:46:18;9.10;99.90
28654;DHT22;24320;56.980;24.336;2024-03-23T09:48:43;9.40;99.90
28654;DHT22;24320;56.980;24.336;2024-03-23T09:51:11;9.60;99.90
28654;DHT22;24320;56.980;24.336;2024-03-23T09:53:37;9.90;99.90
28654;DHT22;24320;56.980;24.336;2024-03-23T09:56:04;10.10;99.90
28654;DHT22;24320;56.980;24.336;2024-03-23T09:58:30;10.20;99.90
28654;DHT22;24320;56.980;24.336;2024-03-23T10:00:58;10.10;99.90
28654;DHT22;24320;56.980;24.336;2024-03-23T10:03:24;10.00;99.90
28654;DHT22;24320;56.980;24.336;2024-03-23T10:06:03;10.10;99.90
28654;DHT22;24320;56.980;24.336;2024-03-23T10:08:29;10.00;99.90
28654;DHT22;24320;56.980;24.336;2024-03-23T10:10:56;10.00;99.90
28654;DHT22;24320;56.980;24.336;2024-03-23T10:13:25;10.10;99.90
28654;DHT22;24320;56.980;24.336;2024-03-23T10:15:56;10.20;99.90
28654;DHT22;24320;56.980;24.336;2024-03-23T10:18:22;10.40;99.90
28654;DHT22;24320;56.980;24.336;2024-03-23T10:23:31;10.50;99.90
28654;DHT22;24320;56.980;24.336;2024-03-23T10:26:18;10.70;99.90
28654;DHT22;24320;56.980;24.336;2024-03-23T10:31:18;10.70;99.90
28654;DHT22;24320;56.980;24.336;2024-03-23T10:33:47;10.70;99.90
28654;DHT22;24320;56.980;24.336;2024-03-23T10:36:13;10.80;99.90
28654;DHT22;24320;56.980;24.336;2024-03-23T10:38:43;10.80;99.90
28654;DHT22;24320;56.980;24.336;2024-03-23T10:41:09;10.80;99.90
28654;DHT22;24320;56.980;24.336;2024-03-23T10:43:37;10.50;99.90
28654;DHT22;24320;56.980;24.336;2024-03-23T10:46:04;10.40;99.90
28654;DHT22;24320;56.980;24.336;2024-03-23T10:48:30;10.60;99.90
28654;DHT22;24320;56.980;24.336;2024-03-23T10:50:56;10.90;99.90
28654;DHT22;24320;56.980;24.336;2024-03-23T10:53:25;11.00;99.90
28654;DHT22;24320;56.980;24.336;2024-03-23T10:55:50;10.80;99.90
28654;DHT22;24320;56.980;24.336;2024-03-23T10:58:17;10.60;99.90
28654;DHT22;24320;56.980;24.336;2024-03-23T11:00:44;10.30;99.90
28654;DHT22;24320;56.980;24.336;2024-03-23T11:05:55;10.20;99.90
28654;DHT22;24320;56.980;24.336;2024-03-23T11:08:31;10.20;99.90
28654;DHT22;24320;56.980;24.336;2024-03-23T11:13:42;10.30;99.90
28654;DHT22;24320;56.980;24.336;2024-03-23T11:16:22;10.20;99.90
28654;DHT22;24320;56.980;24.336;2024-03-23T11:18:49;10.20;99.90
28654;DHT22;24320;56.980;24.336;2024-03-23T11:24:14;10.30;99.90
28654;DHT22;24320;56.980;24.336;2024-03-23T11:26:40;10.40;99.90
28654;DHT22;24320;56.980;24.336;2024-03-23T11:29:14;10.60;99.90
28654;DHT22;24320;56.980;24.336;2024-03-23T11:31:47;10.60;99.90
28654;DHT22;24320;56.980;24.336;2024-03-23T11:34:13;10.70;99.90
28654;DHT22;24320;56.980;24.336;2024-03-23T11:36:40;10.90;99.90
28654;DHT22;24320;56.980;24.336;2024-03-23T11:41:52;11.00;99.90
28654;DHT22;24320;56.980;24.336;2024-03-23T11:44:18;10.90;99.90
28654;DHT22;24320;56.980;24.336;2024-03-23T11:46:44;10.80;99.90
28654;DHT22;24320;56.980;24.336;2024-03-23T11:52:08;10.60;99.90
28654;DHT22;24320;56.980;24.336;2024-03-23T11:54:34;10.60;99.90
28654;DHT22;24320;56.980;24.336;2024-03-23T11:57:01;10.60;99.90
28654;DHT22;24320;56.980;24.336;2024-03-23T11:59:30;10.60;99.90
28654;DHT22;24320;56.980;24.336;2024-03-23T12:01:55;10.60;99.90
28654;DHT22;24320;56.980;24.336;2024-03-23T12:04:28;10.60;99.90
28654;DHT22;24320;56.980;24.336;2024-03-23T12:09:35;10.70;99.90
28654;DHT22;24320;56.980;24.336;2024-03-23T12:12:08;10.80;99.90
28654;DHT22;24320;56.980;24.336;2024-03-23T12:14:34;10.80;99.90
28654;DHT22;24320;56.980;24.336;2024-03-23T12:17:12;10.80;99.90
28654;DHT22;24320;56.980;24.336;2024-03-23T12:19:39;10.80;99.90
28654;DHT22;24320;56.980;24.336;2024-03-23T12:22:05;10.70;99.90
28654;DHT22;24320;56.980;24.336;2024-03-23T12:24:31;10.40;99.90
28654;DHT22;24320;56.980;24.336;2024-03-23T12:27:01;10.10;99.90
28654;DHT22;24320;56.980;24.336;2024-03-23T12:29:32;10.00;99.90
28654;DHT22;24320;56.980;24.336;2024-03-23T12:31:59;10.10;99.90
28654;DHT22;24320;56.980;24.336;2024-03-23T12:34:25;10.30;99.90
28654;DHT22;24320;56.980;24.336;2024-03-23T12:36:52;10.40;99.90
28654;DHT22;24320;56.980;24.336;2024-03-23T12:39:18;10.40;99.90
28654;DHT22;24320;56.980;24.336;2024-03-23T12:41:46;10.40;99.90
28654;DHT22;24320;56.980;24.336;2024-03-23T12:44:12;10.40;99.90
28654;DHT22;24320;56.980;24.336;2024-03-23T12:46:39;10.40;99.90
28654;DHT22;24320;56.980;24.336;2024-03-23T12:49:04;10.50;99.90
28654;DHT22;24320;56.980;24.336;2024-03-23T12:51:31;10.50;99.90
28654;DHT22;24320;56.980;24.336;2024-03-23T12:53:57;10.40;99.90
28654;DHT22;24320;56.980;24.336;2024-03-23T12:56:25;10.40;99.90
28654;DHT22;24320;56.980;24.336;2024-03-23T12:58:50;10.50;99.90
28654;DHT22;24320;56.980;24.336;2024-03-23T13:01:17;10.60;99.90
28654;DHT22;24320;56.980;24.336;2024-03-23T13:03:43;10.70;99.90
28654;DHT22;24320;56.980;24.336;2024-03-23T13:06:10;10.80;99.90
28654;DHT22;24320;56.980;24.336;2024-03-23T13:08:36;10.70;99.90
28654;DHT22;24320;56.980;24.336;2024-03-23T13:11:02;10.70;99.90
28654;DHT22;24320;56.980;24.336;2024-03-23T13:13:28;10.60;99.90
28654;DHT22;24320;56.980;24.336;2024-03-23T13:15:58;10.70;99.90
28654;DHT22;24320;56.980;24.336;2024-03-23T13:18:24;10.80;99.90
28654;DHT22;24320;56.980;24.336;2024-03-23T13:20:49;10.80;99.90
28654;DHT22;24320;56.980;24.336;2024-03-23T13:23:15;10.90;99.90
28654;DHT22;24320;56.980;24.336;2024-03-23T13:25:41;11.10;99.90
28654;DHT22;24320;56.980;24.336;2024-03-23T13:28:14;11.20;99.90
28654;DHT22;24320;56.980;24.336;2024-03-23T13:30:49;11.30;99.90
28654;DHT22;24320;56.980;24.336;2024-03-23T13:33:14;11.30;99.90
28654;DHT22;24320;56.980;24.336;2024-03-23T13:35:40;11.20;99.90
28654;DHT22;24320;56.980;24.336;2024-03-23T13:38:13;11.20;99.90
28654;DHT22;24320;56.980;24.336;2024-03-23T13:40:39;11.00;99.90
28654;DHT22;24320;56.980;24.336;2024-03-23T13:43:14;10.90;99.90
28654;DHT22;24320;56.980;24.336;2024-03-23T13:45:40;10.80;99.90
28654;DHT22;24320;56.980;24.336;2024-03-23T13:48:07;10.70;99.90
28654;DHT22;24320;56.980;24.336;2024-03-23T13:50:33;10.70;99.90
28654;DHT22;24320;56.980;24.336;2024-03-23T13:53:00;10.70;99.90
28654;DHT22;24320;56.980;24.336;2024-03-23T13:55:25;10.70;99.90
28654;DHT22;24320;56.980;24.336;2024-03-23T13:57:51;10.70;99.90
28654;DHT22;24320;56.980;24.336;2024-03-23T14:00:17;10.70;99.90
28654;DHT22;24320;56.980;24.336;2024-03-23T14:02:44;10.80;99.90
28654;DHT22;24320;56.980;24.336;2024-03-23T14:05:10;10.90;99.90
28654;DHT22;24320;56.980;24.336;2024-03-23T14:07:36;10.90;99.90
28654;DHT22;24320;56.980;24.336;2024-03-23T14:10:04;10.90;99.90
28654;DHT22;24320;56.980;24.336;2024-03-23T14:12:32;10.90;99.90
28654;DHT22;24320;56.980;24.336;2024-03-23T14:14:58;10.90;99.90
28654;DHT22;24320;56.980;24.336;2024-03-23T14:17:24;10.90;99.90
28654;DHT22;24320;56.980;24.336;2024-03-23T14:19:51;10.80;99.90
28654;DHT22;24320;56.980;24.336;2024-03-23T14:22:17;10.80;99.90
28654;DHT22;24320;56.980;24.336;2024-03-23T14:24:46;10.80;99.90
28654;DHT22;24320;56.980;24.336;2024-03-23T14:27:11;10.70;99.60
28654;DHT22;24320;56.980;24.336;2024-03-23T14:29:37;10.70;99.30
28654;DHT22;24320;56.980;24.336;2024-03-23T14:32:03;10.60;99.90
28654;DHT22;24320;56.980;24.336;2024-03-23T14:34:30;10.50;99.90
28654;DHT22;24320;56.980;24.336;2024-03-23T14:36:56;10.40;99.80
28654;DHT22;24320;56.980;24.336;2024-03-23T14:39:25;10.40;99.90
28654;DHT22;24320;56.980;24.336;2024-03-23T14:41:51;10.40;98.90
28654;DHT22;24320;56.980;24.336;2024-03-23T14:44:16;10.40;99.10
28654;DHT22;24320;56.980;24.336;2024-03-23T14:46:42;10.30;98.90
28654;DHT22;24320;56.980;24.336;2024-03-23T14:49:08;10.30;99.20
28654;DHT22;24320;56.980;24.336;2024-03-23T14:51:34;10.20;97.70
28654;DHT22;24320;56.980;24.336;2024-03-23T14:54:00;10.10;98.30
28654;DHT22;24320;56.980;24.336;2024-03-23T14:56:26;10.10;97.50
28654;DHT22;24320;56.980;24.336;2024-03-23T14:58:54;10.00;98.30
28654;DHT22;24320;56.980;24.336;2024-03-23T15:01:21;9.90;97.20
28654;DHT22;24320;56.980;24.336;2024-03-23T15:03:47;9.90;96.90
28654;DHT22;24320;56.980;24.336;2024-03-23T15:06:14;9.90;96.80
28654;DHT22;24320;56.980;24.336;2024-03-23T15:08:40;9.90;97.50
28654;DHT22;24320;56.980;24.336;2024-03-23T15:11:06;9.80;97.70
28654;DHT22;24320;56.980;24.336;2024-03-23T15:13:33;9.70;97.20
28654;DHT22;24320;56.980;24.336;2024-03-23T15:16:01;9.60;96.30
28654;DHT22;24320;56.980;24.336;2024-03-23T15:18:32;9.50;96.80
28654;DHT22;24320;56.980;24.336;2024-03-23T15:20:59;9.40;96.40
28654;DHT22;24320;56.980;24.336;2024-03-23T15:23:28;9.30;96.20
28654;DHT22;24320;56.980;24.336;2024-03-23T15:28:21;9.10;96.20
28654;DHT22;24320;56.980;24.336;2024-03-23T15:30:47;9.00;95.70
28654;DHT22;24320;56.980;24.336;2024-03-23T15:33:13;8.90;95.30
28654;DHT22;24320;56.980;24.336;2024-03-23T15:35:40;8.90;95.50
28654;DHT22;24320;56.980;24.336;2024-03-23T15:38:06;8.80;95.50
28654;DHT22;24320;56.980;24.336;2024-03-23T15:40:31;8.80;96.10
28654;DHT22;24320;56.980;24.336;2024-03-23T15:42:57;8.80;95.20
28654;DHT22;24320;56.980;24.336;2024-03-23T15:45:24;8.80;95.80
28654;DHT22;24320;56.980;24.336;2024-03-23T15:47:50;8.70;96.40
28654;DHT22;24320;56.980;24.336;2024-03-23T15:50:16;8.70;97.40
28654;DHT22;24320;56.980;24.336;2024-03-23T15:52:42;8.60;97.60
28654;DHT22;24320;56.980;24.336;2024-03-23T15:55:08;8.50;97.70
28654;DHT22;24320;56.980;24.336;2024-03-23T15:57:35;8.40;97.90
28654;DHT22;24320;56.980;24.336;2024-03-23T16:00:02;8.40;98.30
28654;DHT22;24320;56.980;24.336;2024-03-23T16:02:28;8.30;99.20
28654;DHT22;24320;56.980;24.336;2024-03-23T16:04:54;8.20;98.90
28654;DHT22;24320;56.980;24.336;2024-03-23T16:07:21;8.10;98.90
28654;DHT22;24320;56.980;24.336;2024-03-23T16:09:47;8.10;99.00
28654;DHT22;24320;56.980;24.336;2024-03-23T16:12:12;8.00;99.00
28654;DHT22;24320;56.980;24.336;2024-03-23T16:14:39;7.90;99.10
28654;DHT22;24320;56.980;24.336;2024-03-23T16:17:05;7.80;99.50
28654;DHT22;24320;56.980;24.336;2024-03-23T16:19:30;7.70;99.90
28654;DHT22;24320;56.980;24.336;2024-03-23T16:21:57;7.60;99.90
28654;DHT22;24320;56.980;24.336;2024-03-23T16:24:23;7.50;99.90
28654;DHT22;24320;56.980;24.336;2024-03-23T16:26:49;7.40;99.90
28654;DHT22;24320;56.980;24.336;2024-03-23T16:29:15;7.20;99.90
28654;DHT22;24320;56.980;24.336;2024-03-23T16:31:42;7.10;99.90
28654;DHT22;24320;56.980;24.336;2024-03-23T16:34:08;7.00;99.90
28654;DHT22;24320;56.980;24.336;2024-03-23T16:36:35;6.90;99.90
28654;DHT22;24320;56.980;24.336;2024-03-23T16:39:02;6.80;99.90